Time;durP1;ratioP1;P1;durP2;ratioP2;P2;SDS_P1;SDS_P2;PMS_P1;PMS_P2;Temp;Humidity;BMP_temperature;BMP_pressure;BME280_temperature;BME280_humidity;BME280_pressure;Samples;Min_cycle;Max_cycle;Signal;HPM_P1;HPM_P2
2024/01/20 00:01:41;;;;;;;23.48;11.90;;;;;;;-1.45;74.73;99633.91;5051714;28;20057;-76
2024/01/20 00:04:06;;;;;;;22.60;12.85;;;;;;;-1.60;75.25;99617.09;5059890;28;20047;-76
2024/01/20 00:06:32;;;;;;;33.53;15.55;;;;;;;-1.32;74.17;99620.41;5076534;28;20064;-77
2024/01/20 00:08:57;;;;;;;28.33;13.57;;;;;;;-1.23;73.88;99624.72;5059531;28;20124;-76
2024/01/20 00:11:23;;;;;;;25.13;12.43;;;;;;;-1.28;74.36;99626.97;5032058;28;20033;-76
2024/01/20 00:13:48;;;;;;;25.60;11.75;;;;;;;-1.40;74.06;99630.84;5054581;28;20025;-77
2024/01/20 00:16:13;;;;;;;21.02;11.52;;;;;;;-1.36;74.27;99640.00;5062837;28;20025;-76
2024/01/20 00:18:39;;;;;;;37.95;14.65;;;;;;;-1.44;74.41;99647.81;5059275;28;20160;-76
2024/01/20 00:21:04;;;;;;;25.27;14.48;;;;;;;-1.42;74.07;99635.41;5058175;28;20061;-76
2024/01/20 00:23:29;;;;;;;27.50;13.93;;;;;;;-1.94;74.90;99631.84;5056398;28;20119;-77
2024/01/20 00:25:55;;;;;;;29.38;14.75;;;;;;;-1.80;75.08;99642.63;5066502;28;20033;-76
2024/01/20 00:28:20;;;;;;;26.55;14.10;;;;;;;-1.92;74.89;99645.63;5058219;28;20060;-76
2024/01/20 00:30:46;;;;;;;29.50;13.55;;;;;;;-1.55;74.70;99646.25;5062728;28;20115;-76
2024/01/20 00:33:11;;;;;;;29.95;14.98;;;;;;;-1.57;74.37;99646.41;5060919;28;20040;-76
2024/01/20 00:35:36;;;;;;;28.98;14.80;;;;;;;-1.91;76.12;99648.09;5062596;28;20043;-75
2024/01/20 00:38:03;;;;;;;27.48;14.75;;;;;;;-1.90;76.25;99646.28;5060838;28;20163;-76
2024/01/20 00:40:28;;;;;;;23.33;13.85;;;;;;;-1.61;75.65;99639.84;5071498;28;20025;-76
2024/01/20 00:42:54;;;;;;;33.55;15.20;;;;;;;-1.53;75.50;99646.94;5057487;28;20115;-75
2024/01/20 00:45:19;;;;;;;30.63;15.02;;;;;;;-1.70;75.42;99640.75;5062241;28;20031;-74
2024/01/20 00:47:45;;;;;;;34.63;15.48;;;;;;;-1.60;75.19;99649.34;5067474;28;20028;-75
2024/01/20 00:50:10;;;;;;;28.30;15.25;;;;;;;-1.62;75.81;99638.19;5062572;28;20036;-74
2024/01/20 00:52:36;;;;;;;33.42;15.88;;;;;;;-1.56;74.65;99637.59;5061008;28;20567;-75
2024/01/20 00:55:02;;;;;;;27.08;13.13;;;;;;;-1.69;74.93;99646.81;5063046;28;20029;-75
2024/01/20 00:57:28;;;;;;;34.35;15.55;;;;;;;-1.53;75.57;99654.78;5060822;28;20056;-76
2024/01/20 00:59:53;;;;;;;25.95;14.25;;;;;;;-1.98;75.76;99652.25;5068033;28;20067;-76
2024/01/20 01:02:19;;;;;;;26.67;14.63;;;;;;;-1.71;75.46;99654.81;5058439;28;20053;-76
2024/01/20 01:04:44;;;;;;;29.92;16.00;;;;;;;-1.57;75.14;99656.03;5061680;28;20099;-76
2024/01/20 01:07:10;;;;;;;29.45;15.80;;;;;;;-1.64;75.12;99655.81;5056138;28;20048;-76
2024/01/20 01:09:36;;;;;;;28.92;15.43;;;;;;;-1.62;74.46;99659.13;5063539;28;20025;-75
2024/01/20 01:12:01;;;;;;;27.75;15.43;;;;;;;-1.49;74.60;99645.66;5063984;28;20486;-76
2024/01/20 01:14:27;;;;;;;28.70;15.52;;;;;;;-1.36;74.79;99658.34;5052147;28;20033;-75
2024/01/20 01:16:53;;;;;;;26.45;14.05;;;;;;;-1.62;75.46;99656.50;5066042;28;20546;-76
2024/01/20 01:19:19;;;;;;;32.97;14.48;;;;;;;-1.45;74.79;99672.34;5071235;28;20036;-75
2024/01/20 01:21:44;;;;;;;31.30;14.95;;;;;;;-1.68;74.19;99651.03;5056098;28;20032;-76
2024/01/20 01:24:09;;;;;;;31.35;14.93;;;;;;;-1.52;75.05;99665.09;5059401;28;20040;-75
2024/01/20 01:26:35;;;;;;;31.77;15.98;;;;;;;-1.49;74.33;99665.78;5061418;28;20036;-74
2024/01/20 01:29:00;;;;;;;29.15;15.00;;;;;;;-1.56;75.06;99671.63;5064434;28;20043;-75
2024/01/20 01:31:26;;;;;;;23.10;15.07;;;;;;;-1.61;74.61;99668.63;5056983;28;20056;-76
2024/01/20 01:33:51;;;;;;;28.27;14.55;;;;;;;-1.70;75.01;99655.59;5065907;28;22079;-75
2024/01/20 01:36:17;;;;;;;28.10;15.15;;;;;;;-1.66;74.46;99665.63;5057344;28;20027;-75
2024/01/20 01:38:42;;;;;;;32.85;17.25;;;;;;;-1.68;74.95;99670.19;5060964;28;20017;-75
2024/01/20 01:41:07;;;;;;;34.25;14.95;;;;;;;-1.87;75.97;99674.75;5053808;28;20051;-75
2024/01/20 01:43:33;;;;;;;36.65;15.90;;;;;;;-1.84;76.40;99677.91;5063684;28;20028;-75
2024/01/20 01:45:58;;;;;;;31.33;17.08;;;;;;;-1.78;76.46;99681.72;5059496;28;20045;-74
2024/01/20 01:48:24;;;;;;;38.55;17.35;;;;;;;-1.89;76.06;99688.00;5061523;28;20474;-75
2024/01/20 01:50:52;;;;;;;31.85;16.65;;;;;;;-2.09;76.49;99689.09;5062205;28;20425;-74
2024/01/20 01:53:18;;;;;;;29.45;17.38;;;;;;;-1.89;76.49;99695.00;5063962;28;20028;-74
2024/01/20 01:55:46;;;;;;;39.65;17.98;;;;;;;-1.85;77.18;99691.13;5064675;28;20072;-74
2024/01/20 01:58:11;;;;;;;30.85;16.48;;;;;;;-1.79;77.11;99690.56;5061246;28;20444;-75
2024/01/20 02:00:37;;;;;;;29.23;16.27;;;;;;;-1.72;75.99;99699.41;5065500;28;20021;-76
2024/01/20 02:03:03;;;;;;;35.63;17.23;;;;;;;-1.71;76.16;99691.44;5058731;28;20079;-76
2024/01/20 02:05:28;;;;;;;31.15;16.92;;;;;;;-1.74;76.30;99685.66;5068077;28;20029;-74
2024/01/20 02:07:55;;;;;;;32.65;16.15;;;;;;;-1.70;76.86;99689.63;5067453;28;20036;-75
2024/01/20 02:10:21;;;;;;;32.45;16.00;;;;;;;-1.71;76.70;99683.59;5058607;28;20049;-75
2024/01/20 02:12:47;;;;;;;28.10;16.30;;;;;;;-1.84;76.91;99680.53;5068281;28;20028;-75
2024/01/20 02:15:13;;;;;;;34.63;15.50;;;;;;;-1.84;77.06;99680.53;5076093;28;20163;-74
2024/01/20 02:18:07;;;;;;;33.85;15.35;;;;;;;-1.75;77.29;99684.03;5051663;28;20179;-74
2024/01/20 02:20:34;;;;;;;30.67;15.60;;;;;;;-1.86;76.57;99676.41;5057801;28;20049;-74
2024/01/20 02:22:59;;;;;;;25.52;13.40;;;;;;;-1.76;77.41;99682.38;5064446;28;20025;-75
2024/01/20 02:25:24;;;;;;;26.38;14.55;;;;;;;-1.90;77.39;99688.94;5064858;28;20499;-76
2024/01/20 02:27:50;;;;;;;23.13;13.73;;;;;;;-1.87;77.31;99675.59;5075257;28;20032;-75
2024/01/20 02:30:15;;;;;;;29.17;14.00;;;;;;;-1.78;77.40;99673.88;5060592;28;20044;-76
2024/01/20 02:32:41;;;;;;;27.77;13.63;;;;;;;-1.88;78.12;99673.91;5057381;28;20033;-76
2024/01/20 02:35:07;;;;;;;29.20;14.15;;;;;;;-1.86;77.12;99682.47;5072594;28;20028;-76
2024/01/20 02:37:32;;;;;;;29.45;13.95;;;;;;;-1.84;78.02;99683.16;5066773;28;20099;-75
2024/01/20 02:39:58;;;;;;;23.17;13.70;;;;;;;-1.87;77.73;99677.38;5065316;28;20512;-75
2024/01/20 02:42:23;;;;;;;28.55;13.20;;;;;;;-1.94;77.52;99677.16;5062218;28;20036;-76
2024/01/20 02:44:50;;;;;;;20.65;12.43;;;;;;;-1.79;77.31;99680.88;5045469;28;20660;-76
2024/01/20 02:47:16;;;;;;;28.80;13.75;;;;;;;-1.79;77.33;99688.72;5059462;28;20033;-77
2024/01/20 02:49:41;;;;;;;28.30;14.07;;;;;;;-1.74;77.90;99696.13;5060631;28;20063;-76
2024/01/20 02:52:06;;;;;;;27.58;13.98;;;;;;;-1.77;77.13;99689.41;5056729;28;20170;-76
2024/01/20 02:54:32;;;;;;;26.85;12.90;;;;;;;-1.74;77.33;99688.28;5061463;28;20033;-76
2024/01/20 02:56:57;;;;;;;22.20;11.88;;;;;;;-1.69;77.69;99699.97;5065200;28;20025;-75
2024/01/20 02:59:22;;;;;;;24.13;11.93;;;;;;;-1.67;77.77;99695.41;5061672;28;20036;-75
2024/01/20 03:01:47;;;;;;;21.27;11.35;;;;;;;-1.74;77.41;99683.88;5062207;28;20032;-75
2024/01/20 03:04:13;;;;;;;20.65;11.45;;;;;;;-1.68;77.47;99704.22;5060644;28;20037;-74
2024/01/20 03:06:39;;;;;;;24.83;12.63;;;;;;;-1.67;77.09;99705.03;5063999;28;20033;-75
2024/01/20 03:09:05;;;;;;;25.15;12.43;;;;;;;-1.64;76.98;99699.50;5059608;28;20513;-75
2024/01/20 03:11:30;;;;;;;25.83;13.95;;;;;;;-1.60;77.20;99703.47;5066463;28;20038;-75
2024/01/20 03:13:56;;;;;;;24.27;12.13;;;;;;;-1.63;76.98;99703.75;5062747;28;20132;-74
2024/01/20 03:16:21;;;;;;;21.27;11.98;;;;;;;-1.65;77.73;99703.91;5061791;28;20087;-74
2024/01/20 03:18:46;;;;;;;20.92;9.93;;;;;;;-1.59;77.65;99707.72;5060947;28;20441;-74
2024/01/20 03:21:12;;;;;;;25.77;12.63;;;;;;;-1.62;77.43;99702.81;5059102;28;20021;-74
2024/01/20 03:23:37;;;;;;;19.73;12.38;;;;;;;-1.59;77.21;99700.69;5067678;28;20032;-73
2024/01/20 03:26:10;;;;;;;21.17;11.43;;;;;;;-1.63;76.89;99691.50;5070822;28;20095;-74
2024/01/20 03:28:36;;;;;;;24.83;11.68;;;;;;;-1.46;76.74;99704.75;5062902;28;20676;-74
2024/01/20 03:31:02;;;;;;;23.88;12.73;;;;;;;-1.47;76.74;99703.91;5068435;28;20077;-75
2024/01/20 03:33:27;;;;;;;27.25;13.88;;;;;;;-1.49;77.05;99718.94;5069572;28;20060;-75
2024/01/20 03:35:53;;;;;;;25.70;13.38;;;;;;;-1.28;76.35;99716.00;5062157;28;20017;-76
2024/01/20 03:38:18;;;;;;;22.05;12.68;;;;;;;-1.30;76.27;99710.09;5061651;28;20033;-74
2024/01/20 03:40:44;;;;;;;24.15;13.13;;;;;;;-1.41;76.24;99702.47;5058493;28;20034;-76
2024/01/20 03:43:10;;;;;;;21.00;11.48;;;;;;;-1.28;77.11;99710.75;5064477;28;20430;-76
2024/01/20 03:45:39;;;;;;;22.48;12.30;;;;;;;-1.32;76.81;99710.25;5056329;28;20036;-75
2024/01/20 03:48:04;;;;;;;24.17;12.77;;;;;;;-1.27;77.04;99715.88;5061156;28;21977;-75
2024/01/20 03:50:29;;;;;;;28.15;12.52;;;;;;;-1.48;76.41;99715.34;5062791;28;20142;-76
2024/01/20 03:52:55;;;;;;;21.05;12.30;;;;;;;-1.53;77.23;99710.56;5066563;28;20035;-74
2024/01/20 03:55:20;;;;;;;19.60;11.20;;;;;;;-1.48;76.64;99723.19;5069783;28;20077;-74
2024/01/20 03:57:45;;;;;;;21.17;10.73;;;;;;;-1.55;76.88;99730.81;5055249;28;20103;-76
2024/01/20 04:00:11;;;;;;;19.55;11.18;;;;;;;-1.58;77.27;99723.28;5055382;28;20107;-76
2024/01/20 04:02:36;;;;;;;25.85;11.82;;;;;;;-1.59;76.79;99731.28;5063891;28;20178;-75
2024/01/20 04:05:02;;;;;;;24.73;12.82;;;;;;;-1.79;76.61;99738.44;5055426;28;20107;-76
2024/01/20 04:07:27;;;;;;;23.13;12.00;;;;;;;-1.71;76.60;99725.47;5063658;28;20039;-75
2024/01/20 04:09:52;;;;;;;20.52;10.07;;;;;;;-1.61;76.97;99720.13;5032852;28;20036;-76
2024/01/20 04:12:18;;;;;;;23.45;11.23;;;;;;;-1.67;76.18;99734.66;5061383;28;20052;-74
2024/01/20 04:14:43;;;;;;;23.30;11.77;;;;;;;-1.67;76.47;99745.13;5075594;28;20027;-74
2024/01/20 04:17:09;;;;;;;17.90;11.18;;;;;;;-1.66;76.21;99743.34;5061432;28;20060;-74
2024/01/20 04:19:35;;;;;;;22.52;12.20;;;;;;;-1.74;76.27;99745.84;5064488;28;20508;-75
2024/01/20 04:22:00;;;;;;;22.27;10.90;;;;;;;-1.80;76.92;99749.06;5057237;28;20040;-74
2024/01/20 04:24:25;;;;;;;22.25;13.13;;;;;;;-1.78;76.35;99755.78;5065461;28;20032;-74
2024/01/20 04:26:51;;;;;;;25.92;12.35;;;;;;;-1.75;76.25;99758.09;5056667;28;20063;-74
2024/01/20 04:29:16;;;;;;;21.48;11.88;;;;;;;-1.74;76.44;99754.53;5052380;28;20056;-74
2024/01/20 04:31:41;;;;;;;22.42;11.43;;;;;;;-1.72;75.80;99754.38;5064367;28;20039;-74
2024/01/20 04:34:07;;;;;;;25.15;11.15;;;;;;;-1.75;76.46;99750.25;5061017;28;20039;-74
2024/01/20 04:36:32;;;;;;;21.10;11.48;;;;;;;-1.74;76.27;99759.75;5064258;28;20108;-77
2024/01/20 04:38:57;;;;;;;21.08;11.75;;;;;;;-1.87;76.74;99759.28;5057169;28;20069;-74
2024/01/20 04:41:23;;;;;;;23.00;11.25;;;;;;;-1.80;75.96;99768.22;5057767;28;20063;-74
2024/01/20 04:43:48;;;;;;;21.85;11.80;;;;;;;-1.83;75.99;99755.41;5077504;28;20103;-75
2024/01/20 04:46:13;;;;;;;22.33;10.07;;;;;;;-1.84;76.43;99761.63;5063891;28;20037;-75
2024/01/20 04:48:39;;;;;;;19.70;11.23;;;;;;;-1.82;75.59;99751.84;5062870;28;20088;-75
2024/01/20 04:51:04;;;;;;;25.42;13.23;;;;;;;-1.85;75.88;99762.59;5051015;28;20037;-74
2024/01/20 04:53:29;;;;;;;25.10;12.57;;;;;;;-1.94;76.17;99757.41;5067905;28;20032;-75
2024/01/20 04:55:55;;;;;;;25.20;12.88;;;;;;;-1.83;76.42;99759.81;5066327;28;20016;-74
2024/01/20 04:58:20;;;;;;;20.25;10.90;;;;;;;-1.89;76.48;99779.53;5057717;28;20032;-74
2024/01/20 05:00:45;;;;;;;25.13;11.32;;;;;;;-1.79;76.18;99789.97;5052918;28;20234;-75
2024/01/20 05:03:11;;;;;;;23.67;13.10;;;;;;;-1.83;75.96;99792.03;5055989;28;20083;-74
2024/01/20 05:05:39;;;;;;;23.73;11.98;;;;;;;-1.79;75.27;99788.16;5054085;28;20120;-75
2024/01/20 05:08:04;;;;;;;22.67;12.13;;;;;;;-1.78;75.82;99787.19;5052836;28;20032;-74
2024/01/20 05:10:30;;;;;;;24.85;13.43;;;;;;;-1.74;75.14;99785.94;5057313;28;20024;-74
2024/01/20 05:12:55;;;;;;;25.15;13.40;;;;;;;-1.73;75.31;99790.19;5058736;28;20024;-75
2024/01/20 05:15:20;;;;;;;26.23;13.38;;;;;;;-1.67;75.44;99789.59;5065046;28;20066;-76
2024/01/20 05:17:46;;;;;;;17.73;11.02;;;;;;;-1.77;75.41;99786.22;5058138;28;20079;-75
2024/01/20 05:20:17;;;;;;;21.55;12.75;;;;;;;-1.78;75.89;99794.22;5055652;28;20033;-76
2024/01/20 05:22:42;;;;;;;25.77;13.35;;;;;;;-2.05;75.53;99795.03;5068718;28;20031;-75
2024/01/20 05:25:08;;;;;;;23.15;12.88;;;;;;;-1.92;75.55;99795.53;5064107;28;20029;-75
2024/01/20 05:27:33;;;;;;;18.88;11.82;;;;;;;-1.82;75.03;99803.31;5062625;28;20033;-74
2024/01/20 05:29:59;;;;;;;24.00;12.82;;;;;;;-1.96;75.77;99802.03;5065273;28;20116;-75
2024/01/20 05:32:25;;;;;;;22.02;12.55;;;;;;;-1.92;75.67;99810.41;5068844;28;20052;-75
2024/01/20 05:34:50;;;;;;;25.63;12.00;;;;;;;-2.01;75.70;99791.16;5068155;28;20020;-76
2024/01/20 05:37:16;;;;;;;23.05;13.07;;;;;;;-2.15;75.74;99791.66;5061149;28;20099;-74
2024/01/20 05:39:41;;;;;;;27.70;13.52;;;;;;;-2.28;76.01;99802.44;5073423;28;20035;-75
2024/01/20 05:42:06;;;;;;;24.63;12.38;;;;;;;-2.21;76.74;99801.88;5067621;28;20127;-74
2024/01/20 05:44:31;;;;;;;20.95;12.48;;;;;;;-2.27;76.03;99804.09;5067411;28;20063;-76
2024/01/20 05:46:57;;;;;;;30.05;13.35;;;;;;;-2.28;76.10;99810.28;5060863;28;20090;-76
2024/01/20 05:49:22;;;;;;;18.55;12.75;;;;;;;-2.24;76.32;99812.59;5070922;28;20086;-75
2024/01/20 05:51:47;;;;;;;26.60;13.68;;;;;;;-2.38;77.06;99804.25;5064186;28;20036;-75
2024/01/20 05:54:13;;;;;;;26.02;13.25;;;;;;;-2.28;76.72;99806.84;5062180;28;20063;-74
2024/01/20 05:56:38;;;;;;;26.92;14.18;;;;;;;-2.24;75.86;99805.59;5072854;28;20016;-75
2024/01/20 05:59:03;;;;;;;25.17;10.65;;;;;;;-2.31;75.71;99812.34;5062808;28;20040;-75
2024/01/20 06:01:29;;;;;;;18.77;9.80;;;;;;;-2.32;75.60;99806.31;5070408;28;20548;-76
2024/01/20 06:03:54;;;;;;;26.63;13.90;;;;;;;-2.27;76.61;99804.09;5075698;28;20048;-74
2024/01/20 06:06:19;;;;;;;23.80;12.43;;;;;;;-2.30;76.26;99801.78;5060516;28;20052;-75
2024/01/20 06:08:45;;;;;;;26.55;12.40;;;;;;;-2.25;75.37;99816.19;5058582;28;20376;-74
2024/01/20 06:11:10;;;;;;;27.48;12.60;;;;;;;-2.31;76.26;99822.81;5060981;28;20517;-75
2024/01/20 06:13:37;;;;;;;23.60;13.25;;;;;;;-2.22;76.01;99810.66;5070049;28;20077;-74
2024/01/20 06:16:03;;;;;;;25.42;13.27;;;;;;;-2.13;75.94;99831.56;5062606;28;20481;-74
2024/01/20 06:18:28;;;;;;;28.30;12.90;;;;;;;-2.10;75.38;99833.06;5063395;28;20033;-75
2024/01/20 06:20:54;;;;;;;24.80;11.98;;;;;;;-2.25;75.14;99837.94;5064857;28;20082;-75
2024/01/20 06:23:19;;;;;;;26.05;13.85;;;;;;;-2.11;75.65;99836.63;5069839;28;20568;-75
2024/01/20 06:25:44;;;;;;;28.20;14.18;;;;;;;-2.03;75.00;99842.00;5073683;28;20035;-74
2024/01/20 06:28:10;;;;;;;27.60;13.30;;;;;;;-2.12;75.82;99850.69;5065867;28;20482;-75
2024/01/20 06:30:35;;;;;;;30.60;17.88;;;;;;;-2.04;75.59;99854.22;5066651;28;20495;-75
2024/01/20 06:33:02;;;;;;;22.23;13.57;;;;;;;-2.21;74.59;99857.59;5063658;28;20028;-74
2024/01/20 06:35:27;;;;;;;26.60;14.13;;;;;;;-2.45;75.19;99867.72;5059932;28;20046;-75
2024/01/20 06:37:53;;;;;;;31.25;13.35;;;;;;;-1.81;74.93;99876.44;5057271;28;20482;-75
2024/01/20 06:40:18;;;;;;;29.33;14.50;;;;;;;-1.77;74.20;99884.84;5070033;28;20485;-75
2024/01/20 06:42:43;;;;;;;26.15;12.48;;;;;;;-1.70;73.67;99884.09;5075451;28;20507;-75
2024/01/20 06:45:09;;;;;;;27.75;14.57;;;;;;;-1.78;74.02;99884.00;5064542;28;20048;-75
2024/01/20 06:47:34;;;;;;;28.98;13.93;;;;;;;-1.80;73.31;99885.09;5062714;28;20401;-75
2024/01/20 06:50:00;;;;;;;24.25;12.75;;;;;;;-1.73;73.01;99889.63;5068544;28;20111;-74
2024/01/20 06:52:25;;;;;;;24.38;13.57;;;;;;;-1.82;73.49;99881.81;5077988;28;20369;-75
2024/01/20 06:54:50;;;;;;;27.92;15.00;;;;;;;-1.83;73.67;99878.38;5067408;28;20133;-75
2024/01/20 06:57:16;;;;;;;23.88;12.50;;;;;;;-1.74;73.27;99893.19;5065201;28;20058;-75
2024/01/20 06:59:42;;;;;;;31.48;14.65;;;;;;;-1.84;73.90;99892.44;5054965;28;20493;-75
2024/01/20 07:02:07;;;;;;;30.42;13.55;;;;;;;-1.97;73.80;99881.47;5062260;28;20446;-75
2024/01/20 07:04:33;;;;;;;29.40;15.23;;;;;;;-2.10;72.99;99886.19;5062257;28;20145;-75
2024/01/20 07:06:58;;;;;;;24.40;13.48;;;;;;;-1.86;73.17;99889.13;5065676;28;20037;-75
2024/01/20 07:09:25;;;;;;;29.13;13.95;;;;;;;-2.07;74.11;99888.50;5060339;28;20528;-75
2024/01/20 07:11:53;;;;;;;29.27;14.25;;;;;;;-1.99;73.82;99880.78;5050247;28;20365;-75
2024/01/20 07:14:19;;;;;;;27.40;14.30;;;;;;;-2.06;73.07;99894.56;5059813;28;20036;-75
2024/01/20 07:16:45;;;;;;;27.38;14.90;;;;;;;-1.94;73.45;99896.03;5066365;28;20028;-75
2024/01/20 07:19:10;;;;;;;29.25;13.27;;;;;;;-1.96;74.26;99900.59;5068637;28;20032;-74
2024/01/20 07:21:35;;;;;;;29.15;15.40;;;;;;;-2.15;73.70;99893.63;5063421;28;20046;-74
2024/01/20 07:24:01;;;;;;;27.52;13.95;;;;;;;-2.07;74.18;99908.59;5067885;28;20505;-75
2024/01/20 07:26:26;;;;;;;28.23;13.45;;;;;;;-1.98;73.50;99907.75;5062598;28;20037;-75
2024/01/20 07:28:52;;;;;;;28.92;15.25;;;;;;;-1.95;74.34;99913.53;5062406;28;20050;-75
2024/01/20 07:31:17;;;;;;;30.83;14.93;;;;;;;-2.04;73.95;99919.63;5059430;28;20036;-75
2024/01/20 07:33:43;;;;;;;28.00;14.35;;;;;;;-2.14;74.24;99931.06;5062334;28;20028;-74
2024/01/20 07:36:09;;;;;;;28.83;15.55;;;;;;;-1.98;73.86;99911.19;5058459;28;20025;-74
2024/01/20 07:38:34;;;;;;;34.20;15.45;;;;;;;-1.99;73.83;99914.78;5063830;28;20050;-75
2024/01/20 07:40:59;;;;;;;25.35;13.60;;;;;;;-2.00;73.96;99923.59;5064458;28;20037;-75
2024/01/20 07:43:25;;;;;;;28.05;14.45;;;;;;;-2.03;73.87;99929.09;5062922;28;20059;-74
2024/01/20 07:45:54;;;;;;;26.70;14.52;;;;;;;-2.06;74.54;99923.34;5071469;28;20047;-74
2024/01/20 07:48:22;;;;;;;24.13;13.98;;;;;;;-2.07;73.94;99937.38;5067133;28;20028;-74
2024/01/20 07:50:48;;;;;;;26.15;13.98;;;;;;;-2.23;74.84;99930.13;5063356;28;20028;-74
2024/01/20 07:53:13;;;;;;;29.85;14.55;;;;;;;-2.31;75.25;99938.66;5069241;28;20119;-74
2024/01/20 07:55:39;;;;;;;30.05;15.65;;;;;;;-2.27;75.26;99939.19;5063857;28;20020;-74
2024/01/20 07:58:04;;;;;;;27.52;16.08;;;;;;;-2.12;73.83;99953.50;5056342;28;20445;-74
2024/01/20 08:00:30;;;;;;;31.15;15.80;;;;;;;-2.05;74.38;99949.34;5043932;28;20044;-73
2024/01/20 08:02:55;;;;;;;33.13;15.65;;;;;;;-2.10;74.50;99950.75;5060079;28;20119;-74
2024/01/20 08:05:20;;;;;;;30.30;15.75;;;;;;;-2.03;74.51;99955.25;5067815;28;20037;-74
2024/01/20 08:07:46;;;;;;;23.65;13.75;;;;;;;-2.22;72.70;99939.59;5068378;28;20036;-73
2024/01/20 08:10:11;;;;;;;25.50;13.95;;;;;;;-1.94;73.41;99954.41;5066985;28;20025;-73
2024/01/20 08:12:36;;;;;;;31.27;14.93;;;;;;;-1.91;73.33;99945.44;5058942;28;20051;-74
2024/01/20 08:15:02;;;;;;;26.00;14.02;;;;;;;-1.93;73.52;99945.59;5059630;28;20035;-74
2024/01/20 08:17:27;;;;;;;25.77;14.15;;;;;;;-1.96;72.92;99939.81;5064043;28;20036;-74
2024/01/20 08:19:53;;;;;;;27.55;15.02;;;;;;;-1.86;73.29;99932.78;5062100;28;20063;-74
2024/01/20 08:22:19;;;;;;;28.55;13.43;;;;;;;-1.85;73.63;99940.47;5062642;28;20461;-74
2024/01/20 08:24:45;;;;;;;26.63;14.60;;;;;;;-1.90;73.43;99940.06;5062266;28;20036;-73
2024/01/20 08:27:10;;;;;;;28.08;13.35;;;;;;;-1.82;73.15;99940.19;5059057;28;20028;-74
2024/01/20 08:29:36;;;;;;;27.75;13.32;;;;;;;-2.07;74.28;99932.13;5038808;28;20052;-74
2024/01/20 08:32:02;;;;;;;27.58;13.38;;;;;;;-2.07;75.09;99935.56;5066683;28;20032;-74
2024/01/20 08:34:28;;;;;;;27.05;14.82;;;;;;;-2.28;74.50;99942.78;5065850;28;20430;-74
2024/01/20 08:36:53;;;;;;;30.90;14.75;;;;;;;-2.24;75.25;99948.56;5051167;28;20474;-74
2024/01/20 08:39:19;;;;;;;28.40;14.73;;;;;;;-2.20;75.13;99932.44;5063579;28;20021;-75
2024/01/20 08:41:45;;;;;;;24.83;12.93;;;;;;;-2.15;74.61;99943.31;5060841;28;20112;-74
2024/01/20 08:44:10;;;;;;;31.85;14.55;;;;;;;-2.12;74.96;99948.28;5056546;28;20036;-74
2024/01/20 08:46:36;;;;;;;28.75;13.70;;;;;;;-1.99;74.73;99951.41;5057609;28;20041;-74
2024/01/20 08:49:02;;;;;;;29.65;14.40;;;;;;;-2.05;75.09;99949.34;5041131;28;20101;-74
2024/01/20 08:51:27;;;;;;;28.20;14.63;;;;;;;-2.15;74.94;99950.31;5057957;28;20035;-75
2024/01/20 08:53:53;;;;;;;34.00;14.73;;;;;;;-2.15;75.41;99953.78;5051447;28;20499;-75
2024/01/20 08:56:18;;;;;;;29.98;14.32;;;;;;;-2.05;75.88;99953.78;5070990;28;20032;-75
2024/01/20 08:58:43;;;;;;;26.77;14.07;;;;;;;-2.24;76.05;99946.78;5059741;28;20036;-75
2024/01/20 09:01:09;;;;;;;26.70;14.85;;;;;;;-2.26;76.57;99961.78;5067435;28;20036;-75
2024/01/20 09:03:34;;;;;;;28.75;14.45;;;;;;;-2.01;75.53;99968.22;5059514;28;20492;-75
2024/01/20 09:05:59;;;;;;;24.40;13.55;;;;;;;-2.46;76.84;99966.19;5040349;28;20037;-75
2024/01/20 09:08:25;;;;;;;28.02;15.43;;;;;;;-2.09;75.85;99979.34;5062048;28;20382;-75
2024/01/20 09:10:51;;;;;;;31.23;13.38;;;;;;;-2.04;76.13;99984.16;5061151;28;20504;-76
2024/01/20 09:13:19;;;;;;;30.63;14.50;;;;;;;-1.98;76.30;99975.75;5065793;28;20036;-74
2024/01/20 09:15:45;;;;;;;25.08;12.77;;;;;;;-2.02;76.42;99990.09;5060824;28;20031;-73
2024/01/20 09:18:11;;;;;;;24.83;12.68;;;;;;;-2.05;75.50;99980.72;5062547;28;20032;-72
2024/01/20 09:20:37;;;;;;;24.33;12.10;;;;;;;-2.01;76.17;99981.28;5065307;28;20436;-73
2024/01/20 09:23:03;;;;;;;25.83;12.23;;;;;;;-2.07;76.10;99990.50;5063080;28;20064;-74
2024/01/20 09:25:28;;;;;;;26.02;12.75;;;;;;;-2.14;77.06;99997.25;5060675;28;20063;-74
2024/01/20 09:27:54;;;;;;;24.13;11.18;;;;;;;-2.08;76.32;100001.94;5060765;28;20491;-73
2024/01/20 09:30:19;;;;;;;24.92;12.75;;;;;;;-2.05;76.54;100001.66;5061880;28;20033;-73
2024/01/20 09:32:45;;;;;;;24.20;12.80;;;;;;;-2.08;76.81;100017.63;5057814;28;20025;-73
2024/01/20 09:35:10;;;;;;;22.77;11.93;;;;;;;-2.03;76.42;100010.16;5054033;28;20560;-73
2024/01/20 09:37:38;;;;;;;25.88;12.23;;;;;;;-2.08;76.62;100015.03;5059843;28;20048;-73
2024/01/20 09:40:07;;;;;;;29.85;12.80;;;;;;;-2.05;76.35;100012.09;5059631;28;20029;-73
2024/01/20 09:42:33;;;;;;;18.38;9.48;;;;;;;-2.01;76.07;100021.31;5058808;28;20064;-73
2024/01/20 09:44:59;;;;;;;22.30;11.02;;;;;;;-2.04;76.66;100020.78;5065874;28;20059;-73
2024/01/20 09:47:24;;;;;;;30.13;13.85;;;;;;;-2.07;77.13;100006.19;5059802;28;20029;-73
2024/01/20 09:49:49;;;;;;;22.88;12.63;;;;;;;-1.99;76.23;100018.59;5062091;28;20098;-73
2024/01/20 09:52:15;;;;;;;24.17;12.57;;;;;;;-1.92;76.69;100024.91;5045066;28;20028;-73
2024/01/20 09:55:21;;;;;;;31.75;14.25;;;;;;;-1.95;76.21;100025.19;5060497;28;20029;-73
2024/01/20 09:57:48;;;;;;;25.80;13.20;;;;;;;-1.96;77.15;100020.91;5063900;28;20520;-73
2024/01/20 10:00:16;;;;;;;25.77;12.98;;;;;;;-1.97;77.11;100022.72;5057787;28;20242;-73
2024/01/20 10:02:44;;;;;;;25.13;11.85;;;;;;;-1.89;76.95;100024.63;5062208;28;20051;-73
2024/01/20 10:05:10;;;;;;;25.10;12.85;;;;;;;-1.97;76.62;100014.88;5065804;28;20037;-74
2024/01/20 10:07:36;;;;;;;25.13;12.05;;;;;;;-1.87;77.19;100025.28;5057343;28;20415;-73
2024/01/20 10:10:02;;;;;;;25.80;13.15;;;;;;;-1.85;77.12;100024.19;5057550;28;20032;-73
2024/01/20 10:12:28;;;;;;;25.65;12.82;;;;;;;-1.81;76.34;100020.31;5065762;28;20035;-73
2024/01/20 10:14:56;;;;;;;24.80;11.60;;;;;;;-1.87;76.44;100031.34;5062707;28;20040;-73
2024/01/20 10:17:21;;;;;;;21.35;11.38;;;;;;;-1.79;77.39;100031.47;5071713;28;20507;-74
2024/01/20 10:19:47;;;;;;;25.35;13.00;;;;;;;-1.83;76.47;100030.09;5064018;28;20044;-73
2024/01/20 10:22:12;;;;;;;23.05;12.27;;;;;;;-1.79;76.28;100033.28;5068721;28;20036;-74
2024/01/20 10:24:51;;;;;;;26.98;12.13;;;;;;;-1.82;77.00;100023.09;5065479;28;20044;-74
2024/01/20 10:27:25;;;;;;;23.67;11.60;;;;;;;-1.76;77.08;100031.19;5064434;28;20036;-73
2024/01/20 10:29:51;;;;;;;27.15;15.00;;;;;;;-1.98;76.92;100030.69;5049845;28;20024;-73
2024/01/20 10:32:17;;;;;;;23.23;12.23;;;;;;;-1.86;77.75;100021.72;5058324;28;20047;-73
2024/01/20 10:34:43;;;;;;;22.25;12.27;;;;;;;-1.73;76.70;100017.84;5062900;28;20024;-73
2024/01/20 10:37:13;;;;;;;21.52;10.25;;;;;;;-1.80;77.15;100026.38;5066950;28;20033;-74
2024/01/20 10:39:43;;;;;;;26.90;13.15;;;;;;;-1.75;76.84;100019.75;5063344;28;20056;-73
2024/01/20 10:42:12;;;;;;;23.25;12.48;;;;;;;-1.77;76.83;100020.88;5053981;28;20110;-73
2024/01/20 10:44:42;;;;;;;20.77;10.63;;;;;;;-1.72;77.60;100014.25;5058973;28;20080;-75
2024/01/20 10:47:15;;;;;;;23.23;13.50;;;;;;;-1.73;77.49;100011.78;5061119;28;20040;-73
2024/01/20 10:49:45;;;;;;;21.65;12.00;;;;;;;-1.70;77.45;100014.09;5050599;28;20104;-73
2024/01/20 10:52:11;;;;;;;33.10;14.50;;;;;;;-1.75;76.81;100004.06;5057970;28;20124;-73
2024/01/20 10:54:37;;;;;;;24.52;11.93;;;;;;;-1.72;77.26;100010.81;5073625;28;20047;-73
2024/01/20 10:57:03;;;;;;;23.25;11.85;;;;;;;-1.65;77.33;100010.09;5060770;28;20037;-73
2024/01/20 10:59:30;;;;;;;27.27;13.70;;;;;;;-1.66;77.47;100010.25;5066936;28;20029;-73
2024/01/20 11:01:56;;;;;;;28.10;14.68;;;;;;;-1.65;77.15;100001.41;5070332;28;20036;-73
2024/01/20 11:04:22;;;;;;;27.00;12.95;;;;;;;-1.59;77.52;100004.28;5065994;28;20031;-73
2024/01/20 11:06:47;;;;;;;29.45;13.85;;;;;;;-1.53;77.37;100001.09;5062325;28;20028;-73
2024/01/20 11:09:23;;;;;;;28.35;13.45;;;;;;;-1.49;77.06;99992.97;5059078;28;20432;-73
2024/01/20 11:12:03;;;;;;;25.08;13.27;;;;;;;-1.48;77.28;100002.44;5064605;28;20040;-73